Time;durP1;ratioP1;P1;durP2;ratioP2;P2;SDS_P1;SDS_P2;PMS_P1;PMS_P2;Temp;Humidity;BMP_temperature;BMP_pressure;BME280_temperature;BME280_humidity;BME280_pressure;Samples;Min_cycle;Max_cycle;Signal;HPM_P1;HPM_P2
2022/12/09 15:03:20;;;;;;;37.78;17.98;;;3.30;80.00;;;;;;5131663;27;20430;-64
2022/12/09 15:06:03;;;;;;;29.05;16.83;;;3.30;79.60;;;;;;5131670;28;20435;-63
2022/12/09 15:08:44;;;;;;;30.15;17.40;;;3.40;79.00;;;;;;5113219;28;20381;-63
2022/12/09 15:11:17;;;;;;;;;;;3.50;78.80;;;;;;5131237;28;20045;-63
2022/12/09 15:13:49;;;;;;;32.08;18.27;;;3.60;78.70;;;;;;5112888;28;19996;-64
2022/12/09 15:16:18;;;;;;;36.70;19.55;;;3.60;79.60;;;;;;5131227;28;20076;-64
2022/12/09 15:18:45;;;;;;;39.95;22.17;;;3.60;80.80;;;;;;5131264;27;20069;-62
2022/12/09 15:21:25;;;;;;;49.78;25.15;;;3.70;81.70;;;;;;5130656;27;20070;-64
2022/12/09 15:23:51;;;;;;;59.72;31.42;;;3.60;82.50;;;;;;5131170;28;20047;-63
2022/12/09 15:26:19;;;;;;;61.25;32.55;;;3.60;83.30;;;;;;5131687;27;20043;-63
2022/12/09 15:28:49;;;;;;;70.65;34.55;;;3.60;83.80;;;;;;5131066;27;20121;-63
2022/12/09 15:31:26;;;;;;;67.80;34.13;;;3.70;83.80;;;;;;5131080;27;20489;-63
2022/12/09 15:33:59;;;;;;;67.70;34.95;;;3.50;83.80;;;;;;5130829;27;20069;-64
2022/12/09 15:36:37;;;;;;;58.30;30.23;;;3.60;84.00;;;;;;5131207;27;20085;-65
2022/12/09 15:39:12;;;;;;;73.03;35.30;;;3.50;84.00;;;;;;5131560;27;20027;-63
2022/12/09 15:42:09;;;;;;;64.82;33.45;;;3.60;83.90;;;;;;5131024;27;20028;-65
2022/12/09 15:44:55;;;;;;;64.70;33.50;;;3.50;84.00;;;;;;5130040;28;20412;-64
2022/12/09 15:47:37;;;;;;;72.15;37.28;;;3.50;84.10;;;;;;5132314;28;20019;-64
2022/12/09 15:50:52;;;;;;;73.60;36.97;;;3.30;85.00;;;;;;5130704;28;20022;-64
2022/12/09 15:53:25;;;;;;;75.88;39.92;;;3.20;85.50;;;;;;5070314;28;20056;-64
2022/12/09 15:55:56;;;;;;;80.95;41.30;;;3.10;86.20;;;;;;5087767;28;20028;-66
2022/12/09 15:58:26;;;;;;;85.50;40.95;;;3.00;86.70;;;;;;5106161;28;20035;-63
2022/12/09 16:00:53;;;;;;;92.55;41.72;;;3.00;87.10;;;;;;5129953;27;20023;-64
2022/12/09 16:03:23;;;;;;;92.88;44.17;;;3.00;87.10;;;;;;5130599;27;20019;-64
2022/12/09 16:05:54;;;;;;;92.95;40.88;;;2.90;87.50;;;;;;5130193;27;20020;-64
2022/12/09 16:08:20;;;;;;;94.43;42.90;;;2.80;87.20;;;;;;5129672;27;20031;-63
2022/12/09 16:10:49;;;;;;;100.95;44.25;;;2.80;87.60;;;;;;5130277;27;20042;-64
2022/12/09 16:13:17;;;;;;;102.80;43.55;;;2.50;87.80;;;;;;5123106;27;20024;-64
2022/12/09 16:15:43;;;;;;;102.22;46.60;;;2.40;88.30;;;;;;5098170;28;20016;-64
2022/12/09 16:18:17;;;;;;;111.82;47.65;;;2.40;88.70;;;;;;5116805;28;20020;-64
2022/12/09 16:20:54;;;;;;;103.32;42.83;;;2.30;88.80;;;;;;5116329;28;20015;-64
2022/12/09 16:23:23;;;;;;;127.90;48.75;;;2.40;89.40;;;;;;5116737;28;20024;-64
2022/12/09 16:25:54;;;;;;;119.50;50.87;;;2.30;89.00;;;;;;5116324;28;20016;-65
2022/12/09 16:28:23;;;;;;;135.98;52.60;;;2.10;89.60;;;;;;5116823;28;20477;-63
2022/12/09 16:30:56;;;;;;;131.93;50.47;;;1.90;90.00;;;;;;5117173;28;20024;-63
2022/12/09 16:33:23;;;;;;;126.53;51.10;;;1.80;90.30;;;;;;5115525;28;20077;-63
2022/12/09 16:36:06;;;;;;;116.25;49.45;;;1.80;90.70;;;;;;5115602;28;20023;-64
2022/12/09 16:38:34;;;;;;;123.43;44.40;;;1.90;90.50;;;;;;5115341;28;20487;-64
2022/12/09 16:41:01;;;;;;;132.23;47.53;;;1.90;90.40;;;;;;5115765;28;20035;-64
2022/12/09 16:43:29;;;;;;;127.15;46.63;;;1.90;90.50;;;;;;5116524;28;20016;-63
2022/12/09 16:46:17;;;;;;;127.00;45.42;;;1.80;90.20;;;;;;5115388;28;20026;-64
2022/12/09 16:48:47;;;;;;;119.45;43.72;;;1.70;90.50;;;;;;5114956;28;20093;-65
2022/12/09 16:51:16;;;;;;;113.10;41.63;;;1.60;90.30;;;;;;5115377;27;20036;-63
2022/12/09 16:53:47;;;;;;;121.63;43.22;;;1.60;90.40;;;;;;5114929;28;20024;-63
2022/12/09 16:56:24;;;;;;;113.90;44.58;;;1.60;90.50;;;;;;5114143;28;20054;-63
2022/12/09 16:58:51;;;;;;;114.82;45.75;;;1.60;90.60;;;;;;5115328;28;20024;-62
2022/12/09 17:01:18;;;;;;;112.40;42.90;;;1.50;90.70;;;;;;5115078;28;20090;-64
2022/12/09 17:04:03;;;;;;;111.40;41.25;;;1.60;90.80;;;;;;5115733;28;20031;-63
2022/12/09 17:06:30;;;;;;;116.18;43.90;;;1.60;90.70;;;;;;5114111;28;20015;-62
2022/12/09 17:08:55;;;;;;;116.95;42.30;;;1.50;90.50;;;;;;5115417;28;20158;-64
2022/12/09 17:11:21;;;;;;;117.82;44.08;;;1.40;90.80;;;;;;5115208;28;20034;-64
2022/12/09 17:13:48;;;;;;;113.13;43.33;;;1.40;90.90;;;;;;5114617;28;20027;-63
2022/12/09 17:16:14;;;;;;;110.38;40.95;;;1.50;90.80;;;;;;5115383;28;20030;-63
2022/12/09 17:18:40;;;;;;;117.80;41.10;;;1.40;90.60;;;;;;5115437;28;20407;-64
2022/12/09 17:21:09;;;;;;;114.88;44.67;;;1.50;90.80;;;;;;5115103;28;20054;-63
2022/12/09 17:23:35;;;;;;;128.57;42.38;;;1.40;90.50;;;;;;5113342;28;20098;-64
2022/12/09 17:26:03;;;;;;;126.80;42.38;;;1.50;90.70;;;;;;5113711;28;20026;-65
2022/12/09 17:28:30;;;;;;;122.70;43.65;;;1.50;90.70;;;;;;5113172;28;20470;-64
2022/12/09 17:30:57;;;;;;;103.03;40.88;;;1.40;90.70;;;;;;5113804;28;20016;-64
2022/12/09 17:33:24;;;;;;;115.75;42.30;;;1.40;90.70;;;;;;5113310;28;20023;-62
2022/12/09 17:35:50;;;;;;;105.47;39.20;;;1.40;90.50;;;;;;5114065;28;20015;-65
2022/12/09 17:38:16;;;;;;;95.28;36.97;;;1.60;90.70;;;;;;5114825;28;20023;-63
2022/12/09 17:40:41;;;;;;;87.35;35.97;;;1.60;90.40;;;;;;5114432;28;20031;-62
2022/12/09 17:43:07;;;;;;;84.07;36.15;;;1.60;90.00;;;;;;5114409;28;20528;-63
2022/12/09 17:45:33;;;;;;;89.40;37.00;;;1.70;89.70;;;;;;5114710;28;20053;-63
2022/12/09 17:47:58;;;;;;;91.15;32.78;;;1.50;88.80;;;;;;5112726;28;20085;-64
2022/12/09 17:50:28;;;;;;;87.90;34.92;;;1.50;88.90;;;;;;5114767;28;20020;-64
2022/12/09 17:52:53;;;;;;;69.18;31.75;;;1.60;89.10;;;;;;5113431;28;20023;-62
2022/12/09 17:55:26;;;;;;;71.32;32.53;;;1.40;88.80;;;;;;5114985;28;20424;-64
2022/12/09 17:57:52;;;;;;;64.85;29.65;;;1.40;89.20;;;;;;5114221;28;20024;-63
2022/12/09 18:00:19;;;;;;;81.10;33.28;;;1.40;89.00;;;;;;5115129;28;20035;-63
2022/12/09 18:02:44;;;;;;;75.45;32.65;;;1.40;88.90;;;;;;5113018;28;20047;-63
2022/12/09 18:05:10;;;;;;;71.38;32.55;;;1.50;89.00;;;;;;5114127;28;20484;-63
2022/12/09 18:07:36;;;;;;;73.90;31.40;;;1.40;88.60;;;;;;5115049;28;20031;-64
2022/12/09 18:10:06;;;;;;;78.03;31.73;;;1.50;88.60;;;;;;5113773;28;20355;-65
2022/12/09 18:12:32;;;;;;;77.72;31.33;;;1.40;88.30;;;;;;5112790;28;20040;-63
2022/12/09 18:14:58;;;;;;;67.25;31.42;;;1.40;88.40;;;;;;5112607;28;20392;-63
2022/12/09 18:17:23;;;;;;;72.40;32.83;;;1.40;88.40;;;;;;5112842;28;20102;-63
2022/12/09 18:19:49;;;;;;;69.15;30.98;;;1.40;88.30;;;;;;5113835;28;20412;-63
2022/12/09 18:22:15;;;;;;;63.72;28.15;;;1.40;88.50;;;;;;5113684;28;20069;-63
2022/12/09 18:24:40;;;;;;;84.65;34.78;;;1.40;88.40;;;;;;5113647;28;20099;-64
2022/12/09 18:27:06;;;;;;;63.90;31.95;;;1.50;88.30;;;;;;5112399;28;20114;-64
2022/12/09 18:29:36;;;;;;;68.10;31.83;;;1.50;88.20;;;;;;5114695;28;20478;-64
2022/12/09 18:32:01;;;;;;;84.32;34.25;;;1.30;88.20;;;;;;5112693;28;20130;-63
2022/12/09 18:34:27;;;;;;;85.60;31.75;;;1.30;88.50;;;;;;5113877;28;20482;-63
2022/12/09 18:36:54;;;;;;;74.97;33.47;;;1.40;88.40;;;;;;5112118;28;20115;-63
2022/12/09 18:39:20;;;;;;;71.72;31.10;;;1.40;88.20;;;;;;5113579;28;20063;-64
2022/12/09 18:41:46;;;;;;;71.50;28.50;;;1.40;88.30;;;;;;5113423;28;20478;-63
2022/12/09 18:44:13;;;;;;;67.85;30.75;;;1.50;88.40;;;;;;5112155;28;20023;-64
2022/12/09 18:46:45;;;;;;;64.13;30.73;;;1.60;88.10;;;;;;5113758;28;20019;-64
2022/12/09 18:49:22;;;;;;;76.47;32.45;;;1.60;88.10;;;;;;5112310;28;20026;-64
2022/12/09 18:51:49;;;;;;;72.38;31.42;;;1.60;87.80;;;;;;5113602;28;20032;-62
2022/12/09 18:54:33;;;;;;;60.97;29.52;;;1.60;87.50;;;;;;5113473;28;20370;-63
2022/12/09 18:57:00;;;;;;;69.30;29.73;;;1.70;87.70;;;;;;5112064;28;20035;-64
2022/12/09 18:59:27;;;;;;;70.05;30.67;;;1.70;87.50;;;;;;5113357;28;20031;-64
2022/12/09 19:01:53;;;;;;;73.57;32.38;;;1.60;87.30;;;;;;5113211;28;20516;-63
2022/12/09 19:04:26;;;;;;;66.50;29.50;;;1.70;87.00;;;;;;5113935;28;20031;-64
2022/12/09 19:06:54;;;;;;;71.75;30.75;;;1.70;87.30;;;;;;5113588;28;20011;-64
2022/12/09 19:09:30;;;;;;;64.57;30.65;;;1.60;87.30;;;;;;5113845;28;20030;-64
2022/12/09 19:11:57;;;;;;;74.43;34.03;;;1.70;87.60;;;;;;5113563;28;20072;-64
2022/12/09 19:14:23;;;;;;;69.53;32.13;;;1.80;87.20;;;;;;5113927;28;20028;-63
2022/12/09 19:16:50;;;;;;;76.57;34.08;;;1.80;86.90;;;;;;5112738;28;20027;-63
2022/12/09 19:19:20;;;;;;;66.30;30.50;;;1.80;86.70;;;;;;5114137;28;20034;-65
2022/12/09 19:21:46;;;;;;;78.82;32.90;;;1.60;86.70;;;;;;5113516;28;20131;-62
2022/12/09 19:24:15;;;;;;;79.47;34.25;;;1.50;86.90;;;;;;5113385;28;20047;-64
2022/12/09 19:26:41;;;;;;;70.57;31.98;;;1.40;87.60;;;;;;5113255;28;20035;-63
2022/12/09 19:29:09;;;;;;;72.03;33.63;;;1.50;87.60;;;;;;5113357;28;20077;-63
2022/12/09 19:31:55;;;;;;;77.75;34.42;;;1.50;87.70;;;;;;5113189;28;20020;-64
2022/12/09 19:34:27;;;;;;;85.53;35.70;;;1.50;87.70;;;;;;5113163;28;20024;-64
2022/12/09 19:36:55;;;;;;;72.45;33.25;;;1.50;87.80;;;;;;5113083;28;20027;-63
2022/12/09 19:39:23;;;;;;;82.60;36.75;;;1.60;88.10;;;;;;5112786;28;20383;-64
2022/12/09 19:41:49;;;;;;;65.60;32.33;;;1.60;87.70;;;;;;5111358;28;20555;-64
2022/12/09 19:44:16;;;;;;;67.53;29.75;;;1.60;87.70;;;;;;5112594;28;20142;-64
2022/12/09 19:46:42;;;;;;;80.50;36.60;;;1.70;87.50;;;;;;5111417;28;20020;-64
2022/12/09 19:49:12;;;;;;;75.68;33.90;;;1.70;87.40;;;;;;5115904;28;20409;-64
2022/12/09 19:51:38;;;;;;;70.40;32.92;;;1.60;87.60;;;;;;5116910;27;20022;-65
2022/12/09 19:54:04;;;;;;;80.45;34.33;;;1.60;87.50;;;;;;5117165;28;20024;-63
2022/12/09 19:56:30;;;;;;;66.70;30.80;;;1.40;87.80;;;;;;5117457;27;20023;-63
2022/12/09 19:58:56;;;;;;;68.30;32.55;;;1.50;88.10;;;;;;5115583;28;20558;-63
2022/12/09 20:01:32;;;;;;;73.32;31.90;;;1.50;87.60;;;;;;5116596;28;20043;-63
2022/12/09 20:04:00;;;;;;;76.22;33.80;;;1.60;88.00;;;;;;5116644;28;20103;-64
2022/12/09 20:06:26;;;;;;;77.55;37.35;;;1.40;87.80;;;;;;5116534;27;20026;-63
2022/12/09 20:08:53;;;;;;;75.43;34.30;;;1.40;88.50;;;;;;5116826;28;20024;-64
2022/12/09 20:11:21;;;;;;;77.22;35.25;;;1.40;88.10;;;;;;5115223;28;20359;-63
2022/12/09 20:13:47;;;;;;;68.97;33.67;;;1.30;88.30;;;;;;5115347;28;20024;-63
2022/12/09 20:16:16;;;;;;;70.32;32.92;;;1.30;88.10;;;;;;5115215;28;20019;-65
2022/12/09 20:18:42;;;;;;;77.18;33.30;;;1.30;88.50;;;;;;5117577;28;20027;-64
2022/12/09 20:21:10;;;;;;;74.15;34.95;;;1.30;88.60;;;;;;5116920;28;20042;-63
2022/12/09 20:23:37;;;;;;;69.57;32.75;;;1.30;88.60;;;;;;5117262;28;20409;-62
2022/12/09 20:26:10;;;;;;;69.88;35.97;;;1.30;88.50;;;;;;5117066;28;20443;-63
2022/12/09 20:28:37;;;;;;;74.57;32.92;;;1.40;88.10;;;;;;5115195;28;20085;-65
2022/12/09 20:31:12;;;;;;;66.85;31.38;;;1.30;88.20;;;;;;5116688;27;20088;-64
2022/12/09 20:33:38;;;;;;;70.82;32.63;;;1.30;88.50;;;;;;5116426;28;20027;-62
2022/12/09 20:36:09;;;;;;;76.28;33.00;;;1.30;88.70;;;;;;5116379;28;20019;-64
2022/12/09 20:38:34;;;;;;;65.32;30.83;;;1.30;88.60;;;;;;5116426;28;20096;-64
2022/12/09 20:41:11;;;;;;;67.15;30.80;;;1.40;88.40;;;;;;5115994;28;20027;-64
2022/12/09 20:43:38;;;;;;;66.65;31.67;;;1.50;88.10;;;;;;5116009;28;20027;-62
2022/12/09 20:46:11;;;;;;;65.25;31.35;;;1.40;87.70;;;;;;5114439;28;20110;-63
2022/12/09 20:48:38;;;;;;;62.83;31.17;;;1.30;87.70;;;;;;5115889;28;20069;-63
2022/12/09 20:51:13;;;;;;;64.07;30.50;;;1.30;87.90;;;;;;5115710;28;20020;-64
2022/12/09 20:53:40;;;;;;;72.00;32.50;;;1.30;87.90;;;;;;5114421;28;20107;-63
2022/12/09 20:56:06;;;;;;;67.63;32.33;;;1.10;87.90;;;;;;5115324;28;20016;-64
2022/12/09 20:58:31;;;;;;;69.35;29.00;;;1.20;88.30;;;;;;5115821;28;20026;-63
